Battle Creek, Michigan
Current Conditions -  °F | °C
As of 6:53 PM on Wednesday 26 Nov 2014 (Local Time) from KBTL Reporting Station
Overcast Overcast  
Wind Chill: 22°   Ceiling: 3500
Heat Index: 29°   Visibility: 10mi
Dew Point: 21°   Wind: 7mph
Humidity: 72%   Direction: 340°NNW
Pressure: 30.09"   Gusts: NA
Location:  42.32°N, 85.18°W
Report Text: KBTL 262353Z 34006KT 10SM OVC035 M02/M06 A3009 RMK AO2 SLP200 60000 T10171061 11006 21022 58008
Loading
Personal Weather Stations






























Interactive Weather Map New forecast layout! Learn more

10-Day Weather Forecast

Advertisements
Track Severe Weather on mobile